Woodstock, GA

5:07 PM EDT on September 20, 2014 (GMT -0400)
Mountain Park | Change Station
CLOSE
Current Station
Personal Weather Station
Location: Mountain Park, GA
Elevation: 925 ft
Nearby Weather Stations

Elev 925 ft 34.08 °N, 84.42 °W | Updated 3 seconds ago

Scattered Clouds
Scattered Clouds
0.0 °F
Feels Like 0.0 °F
N
0.0
Wind Variable Wind from North
Gusts 0.0 mph

Today
High -- | Low -- °F
--% Chance of Precip.
Yesterday
High -- | Low -- °F
Precip. -- in
7:24 AM 7:37 PM
Waning Crescent, 10% visible
Pressure 30.07 in
Visibility 10.0 miles
Clouds Scattered Clouds 4900 ft
Dew Point Not available.
Humidity Not available.
Rainfall 0.02 in
Snow Depth Not available.
UV 3 out of 12
Pollen 8.50 out of 12
Ozone Good
PM2.5 Moderate
Flu Activity Not available.
METAR KRYY 202047Z 10007G16KT 10SM SCT049 27/15 A3007

More Conditions Fewer Conditions

Pressure 30.07 in
Visibility 10.0 miles
Clouds Scattered Clouds 4900 ft
Dew Point Not available.
Humidity Not available.
Rainfall 0.02 in
Snow Depth Not available.
UV 3 out of 12
Pollen 8.50 out of 12
Ozone Good
PM2.5 Moderate
Flu Activity Not available.
METAR KRYY 202047Z 10007G16KT 10SM SCT049 27/15 A3007

More Conditions Fewer Conditions

10-Day Weather Forecast

Almanac

Astronomy

Sep. 20, 2014 Rise Set
Actual Time 7:24 AM EDT 7:37 PM EDT
Civil Twilight 6:59 AM EDT 8:02 PM EDT
Nautical Twilight 6:30 AM EDT 8:31 PM EDT
Astronomical Twilight 6:00 AM EDT 9:00 PM EDT
Moon 4:10 AM EDT 5:34 PM EDT
Length of Visible Light 13h 02m
Length of Day
12h 12m
Tomorrow will be 2m 7s shorter.
Waning Crescent, 10% of the Moon is Illuminated
Today
Waning Crescent
Sep 24
New
Oct 1
First Quarter
Oct 8
Full
Oct 15
Last Quarter

Today's Extremes

State Highs State Lows

Community

WunderPhotos

Upload Photos

1,754,947 photos uploaded!

WunderBlogs® & News

Nearby

Air Quality

  Air Quality AQ Index Pollutant
Yesterday Good
PM10
Yesterday Good
OZONE
Current Moderate
PM2.5
Current Good
OZONE
Saturday Moderate
PM2.5
Saturday Good
OZONE
Sunday Moderate
PM2.5
Sunday Good
OZONE

Snow Depth

Station Depth Elevation
No new snow has been reported.

Earthquake Activity

City Distance Mag. Time & Date
Sweetwater, Tennessee 107 miles 2.5 3:54 PM EDT
2014-09-20
Minimum magnitude displayed is 2.5.

Coastal Water Temperatures

Place Temperature
No Stations Reporting

Nearby Weather Stations